createdAt,value
2017-08-08T00:02:17.181Z,67.30
2017-08-08T00:04:43.201Z,67.20
2017-08-08T00:07:09.240Z,67.60
2017-08-08T00:09:42.881Z,68.10
2017-08-08T00:12:08.949Z,68.10
2017-08-08T00:14:34.981Z,68.10
2017-08-08T00:17:01.018Z,68.10
2017-08-08T00:19:27.046Z,68.20
2017-08-08T00:21:53.088Z,68.20
2017-08-08T00:24:19.108Z,68.00
2017-08-08T00:26:45.156Z,67.70
2017-08-08T00:29:11.195Z,68.00
2017-08-08T00:31:37.237Z,67.80
2017-08-08T00:34:03.265Z,68.00
2017-08-08T00:36:29.300Z,68.50
2017-08-08T00:38:55.346Z,69.00
2017-08-08T00:41:22.146Z,69.50
2017-08-08T00:43:48.178Z,69.40
2017-08-08T00:46:14.217Z,70.00
2017-08-08T00:48:40.262Z,70.00
2017-08-08T00:51:06.305Z,70.20
2017-08-08T00:53:32.372Z,70.40
2017-08-08T00:55:58.389Z,70.50
2017-08-08T00:58:24.438Z,70.40
2017-08-08T01:00:50.457Z,70.30
2017-08-08T01:03:16.494Z,70.50
2017-08-08T01:05:42.528Z,70.40
2017-08-08T01:08:08.573Z,70.40
2017-08-08T01:10:34.582Z,70.90
2017-08-08T01:13:00.633Z,71.10
2017-08-08T01:15:26.664Z,71.80
2017-08-08T01:17:52.704Z,72.10
2017-08-08T01:20:18.745Z,72.20
2017-08-08T01:22:45.515Z,73.00
2017-08-08T01:25:11.565Z,73.00
2017-08-08T01:27:37.579Z,72.90
2017-08-08T01:30:03.629Z,73.20
2017-08-08T01:32:29.935Z,73.10
2017-08-08T01:34:56.000Z,72.80
2017-08-08T01:37:22.045Z,72.90
2017-08-08T01:39:48.131Z,73.20
2017-08-08T01:42:14.929Z,73.90
2017-08-08T01:44:40.957Z,73.90
2017-08-08T01:47:07.000Z,74.00
2017-08-08T01:49:33.032Z,74.00
2017-08-08T01:51:59.084Z,74.30
2017-08-08T01:54:25.113Z,73.90
2017-08-08T01:56:51.160Z,73.60
2017-08-08T01:59:17.197Z,73.50
2017-08-08T02:01:43.236Z,73.50
2017-08-08T02:04:09.271Z,73.70
2017-08-08T02:06:35.301Z,73.70
2017-08-08T02:09:01.335Z,73.40
2017-08-08T02:11:27.428Z,73.50
2017-08-08T02:13:53.453Z,73.60
2017-08-08T02:16:19.497Z,74.10
2017-08-08T02:18:45.525Z,74.30
2017-08-08T02:21:12.318Z,74.80
2017-08-08T02:23:38.345Z,74.80
2017-08-08T02:26:04.390Z,75.10
2017-08-08T02:28:31.164Z,75.50
2017-08-08T02:30:57.234Z,75.40
2017-08-08T02:33:23.277Z,75.40
2017-08-08T02:35:49.360Z,75.60
2017-08-08T02:38:15.564Z,75.80
2017-08-08T02:40:42.320Z,75.50
2017-08-08T02:43:08.370Z,75.50
2017-08-08T02:45:34.393Z,75.50
2017-08-08T02:48:00.425Z,75.20
2017-08-08T02:50:27.192Z,74.80
2017-08-08T02:52:53.233Z,74.80
2017-08-08T02:55:19.276Z,74.50
2017-08-08T02:57:45.318Z,74.60
2017-08-08T03:00:11.345Z,74.50
2017-08-08T03:02:37.426Z,74.30
2017-08-08T03:05:03.441Z,74.10
2017-08-08T03:07:29.509Z,73.90
2017-08-08T03:09:55.540Z,73.70
2017-08-08T03:12:21.602Z,73.40
2017-08-08T03:14:47.629Z,73.10
2017-08-08T03:17:13.669Z,73.00
2017-08-08T03:19:39.697Z,72.90
2017-08-08T03:22:05.735Z,72.90
2017-08-08T03:24:31.766Z,72.70
2017-08-08T03:26:57.862Z,72.50
2017-08-08T03:29:23.890Z,72.50
2017-08-08T03:31:49.947Z,72.40
2017-08-08T03:34:15.988Z,72.60
2017-08-08T03:36:42.034Z,72.30
2017-08-08T03:39:08.053Z,72.20
2017-08-08T03:41:34.074Z,72.20
2017-08-08T03:44:00.877Z,72.50
2017-08-08T03:46:26.897Z,72.40
2017-08-08T03:48:52.940Z,72.30
2017-08-08T03:51:18.971Z,72.40
2017-08-08T03:53:52.304Z,72.50
2017-08-08T03:56:19.072Z,73.00
2017-08-08T03:58:45.134Z,72.60
2017-08-08T04:01:11.164Z,72.50
2017-08-08T04:03:37.961Z,72.40
2017-08-08T04:06:03.990Z,72.50
2017-08-08T04:08:30.774Z,71.90
2017-08-08T04:10:56.840Z,72.40
2017-08-08T04:13:23.627Z,72.70
2017-08-08T04:15:49.658Z,72.70
2017-08-08T04:18:15.682Z,72.50
2017-08-08T04:20:42.465Z,72.50
2017-08-08T04:23:08.494Z,72.40
2017-08-08T04:25:34.534Z,72.30
2017-08-08T04:28:01.294Z,72.40
2017-08-08T04:30:27.342Z,72.40
2017-08-08T04:32:53.372Z,72.40
2017-08-08T04:35:19.409Z,72.70
2017-08-08T04:37:45.429Z,72.00
2017-08-08T04:40:11.492Z,72.70
2017-08-08T04:42:37.517Z,72.80
2017-08-08T04:45:03.553Z,72.80
2017-08-08T04:47:29.577Z,72.80
2017-08-08T04:49:55.647Z,72.60
2017-08-08T04:52:22.413Z,72.80
2017-08-08T04:54:48.451Z,72.50
2017-08-08T04:57:14.465Z,72.10
2017-08-08T04:59:40.549Z,72.40
2017-08-08T05:02:06.577Z,72.10
2017-08-08T05:04:32.617Z,72.10
2017-08-08T05:06:58.738Z,71.80
2017-08-08T05:09:25.523Z,72.00
2017-08-08T05:11:51.578Z,71.50
2017-08-08T05:14:17.606Z,71.00
2017-08-08T05:16:44.377Z,70.70
2017-08-08T05:19:10.397Z,70.70
2017-08-08T05:21:36.438Z,70.70
2017-08-08T05:24:02.452Z,70.50
2017-08-08T05:26:29.225Z,70.50
2017-08-08T05:28:55.289Z,70.50
2017-08-08T05:31:21.321Z,70.40
2017-08-08T05:33:47.374Z,70.10
2017-08-08T05:36:13.433Z,70.30
2017-08-08T05:38:40.203Z,70.30
2017-08-08T05:41:06.241Z,70.20
2017-08-08T05:43:32.261Z,70.10
2017-08-08T05:45:58.300Z,69.90
2017-08-08T05:48:24.343Z,69.40
2017-08-08T05:50:50.384Z,69.30
2017-08-08T05:53:16.401Z,69.30
2017-08-08T05:55:42.449Z,69.30
2017-08-08T05:58:08.468Z,68.70
2017-08-08T06:00:34.526Z,68.30
2017-08-08T06:03:00.572Z,67.50
2017-08-08T06:05:26.608Z,66.60
2017-08-08T06:07:52.629Z,66.40
2017-08-08T06:10:18.661Z,66.00
2017-08-08T06:12:44.693Z,65.60
2017-08-08T06:15:11.488Z,65.10
2017-08-08T06:17:37.528Z,64.40
2017-08-08T06:20:03.549Z,65.10
2017-08-08T06:22:30.322Z,65.50
2017-08-08T06:24:56.341Z,64.90
2017-08-08T06:27:22.377Z,64.40
2017-08-08T06:29:48.388Z,64.20
2017-08-08T06:32:14.417Z,64.50
2017-08-08T06:34:41.168Z,64.00
2017-08-08T06:37:07.205Z,63.90
2017-08-08T06:39:33.225Z,63.80
2017-08-08T06:41:59.278Z,63.50
2017-08-08T06:44:26.032Z,63.20
2017-08-08T06:46:52.057Z,63.10
2017-08-08T06:49:18.073Z,63.60
2017-08-08T06:51:44.110Z,63.40
2017-08-08T06:54:10.125Z,63.40
2017-08-08T06:56:36.160Z,63.00
2017-08-08T06:59:02.913Z,62.80
2017-08-08T07:01:28.959Z,62.70
2017-08-08T07:03:54.977Z,62.40
2017-08-08T07:06:21.000Z,62.60
2017-08-08T07:08:47.049Z,62.20
2017-08-08T07:11:13.106Z,62.40
2017-08-08T07:13:40.633Z,62.40
2017-08-08T07:16:06.645Z,62.30
2017-08-08T07:18:32.681Z,62.10
2017-08-08T07:20:58.696Z,62.60
2017-08-08T07:23:24.735Z,61.70
2017-08-08T07:25:50.752Z,61.70
2017-08-08T07:28:16.790Z,61.40
2017-08-08T07:30:42.829Z,61.90
2017-08-08T07:33:08.874Z,61.90
2017-08-08T07:35:35.637Z,61.30
2017-08-08T07:38:01.701Z,61.30
2017-08-08T07:40:28.453Z,60.20
2017-08-08T07:42:54.468Z,60.10
2017-08-08T07:45:20.508Z,60.50
2017-08-08T07:47:46.568Z,60.20
2017-08-08T07:50:13.354Z,59.80
2017-08-08T07:52:39.377Z,59.80
2017-08-08T07:55:05.422Z,59.60
2017-08-08T07:57:31.449Z,59.70
2017-08-08T07:59:57.485Z,59.70
2017-08-08T08:02:23.495Z,60.00
2017-08-08T08:04:49.526Z,60.50
2017-08-08T08:07:15.540Z,59.60
2017-08-08T08:09:41.593Z,59.70
2017-08-08T08:12:07.628Z,60.20
2017-08-08T08:14:33.660Z,60.20
2017-08-08T08:16:59.685Z,59.30
2017-08-08T08:19:25.722Z,60.10
2017-08-08T08:21:51.736Z,59.60
2017-08-08T08:24:18.514Z,59.90
2017-08-08T08:26:44.560Z,59.90
2017-08-08T08:29:11.342Z,59.60
2017-08-08T08:31:37.357Z,59.60
2017-08-08T08:34:03.389Z,59.20
2017-08-08T08:36:29.428Z,59.40
2017-08-08T08:38:55.445Z,58.30
2017-08-08T08:41:21.477Z,58.40
2017-08-08T08:43:47.493Z,57.70
2017-08-08T08:46:13.522Z,58.50
2017-08-08T08:48:39.533Z,57.80
2017-08-08T08:51:05.578Z,57.70
2017-08-08T08:53:32.342Z,58.10
2017-08-08T08:55:58.369Z,58.10
2017-08-08T08:58:24.389Z,58.80
2017-08-08T09:00:50.430Z,59.20
2017-08-08T09:03:17.205Z,58.40
2017-08-08T09:05:43.232Z,58.40
2017-08-08T09:08:09.253Z,58.30
2017-08-08T09:10:35.305Z,58.20
2017-08-08T09:13:02.088Z,58.50
2017-08-08T09:15:28.121Z,58.50
2017-08-08T09:17:54.134Z,59.10
2017-08-08T09:20:20.177Z,58.90
2017-08-08T09:22:46.238Z,57.60
2017-08-08T09:25:12.293Z,57.10
2017-08-08T09:27:38.317Z,57.00
2017-08-08T09:30:04.342Z,57.00
2017-08-08T09:32:30.376Z,57.30
2017-08-08T09:34:56.408Z,56.70
2017-08-08T09:37:23.165Z,56.30
2017-08-08T09:39:49.181Z,56.10
2017-08-08T09:42:15.214Z,56.50
2017-08-08T09:44:41.241Z,57.10
2017-08-08T09:47:07.273Z,55.70
2017-08-08T09:49:33.298Z,56.10
2017-08-08T09:52:00.077Z,55.70
2017-08-08T09:54:26.089Z,55.70
2017-08-08T09:56:52.128Z,54.80
2017-08-08T09:59:18.146Z,54.50
2017-08-08T10:01:44.198Z,55.20
2017-08-08T10:04:10.218Z,53.50
2017-08-08T10:06:36.245Z,54.60
2017-08-08T10:09:02.288Z,54.00
2017-08-08T10:11:28.351Z,54.30
2017-08-08T10:13:54.372Z,55.40
2017-08-08T10:16:20.398Z,53.90
2017-08-08T10:18:46.429Z,54.40
2017-08-08T10:21:12.456Z,54.80
2017-08-08T10:23:39.212Z,53.70
2017-08-08T10:26:05.240Z,53.60
2017-08-08T10:28:31.255Z,54.00
2017-08-08T10:30:57.280Z,53.50
2017-08-08T10:33:23.288Z,54.10
2017-08-08T10:35:49.353Z,54.50
2017-08-08T10:38:15.370Z,53.80
2017-08-08T10:40:41.390Z,53.10
2017-08-08T10:43:07.427Z,54.20
2017-08-08T10:45:33.441Z,54.60
2017-08-08T10:47:59.480Z,51.70
2017-08-08T10:50:26.250Z,51.80
2017-08-08T10:52:52.287Z,51.70
2017-08-08T10:55:18.309Z,51.30
2017-08-08T10:57:44.374Z,51.20
2017-08-08T11:00:10.402Z,50.40
2017-08-08T11:02:36.457Z,49.90
2017-08-08T11:05:03.222Z,50.70
2017-08-08T11:07:29.246Z,50.70
2017-08-08T11:09:55.292Z,51.10
2017-08-08T11:12:21.329Z,48.70
2017-08-08T11:14:48.077Z,49.90
2017-08-08T11:17:14.093Z,49.80
2017-08-08T11:19:40.153Z,48.80
2017-08-08T11:22:06.178Z,48.50
2017-08-08T11:24:32.974Z,46.70
2017-08-08T11:26:58.983Z,47.10
2017-08-08T11:29:25.022Z,47.50
2017-08-08T11:31:51.781Z,47.40
2017-08-08T11:34:17.821Z,47.60
2017-08-08T11:36:43.839Z,47.70
2017-08-08T11:39:09.873Z,47.60
2017-08-08T11:41:35.889Z,45.70
2017-08-08T11:44:01.930Z,46.50
2017-08-08T11:46:27.946Z,45.40
2017-08-08T11:48:53.987Z,46.10
2017-08-08T11:51:19.997Z,46.30
2017-08-08T11:53:46.041Z,45.40
2017-08-08T11:56:12.811Z,45.80
2017-08-08T11:58:38.838Z,45.20
2017-08-08T12:01:04.893Z,45.70
2017-08-08T12:03:31.674Z,43.80
2017-08-08T12:05:57.725Z,43.70
2017-08-08T12:08:23.744Z,43.70
2017-08-08T12:10:49.889Z,44.20
2017-08-08T12:13:15.909Z,41.80
2017-08-08T12:15:41.942Z,42.80
2017-08-08T12:18:07.957Z,43.10
2017-08-08T12:20:34.006Z,42.60
2017-08-08T12:23:00.764Z,42.10
2017-08-08T12:25:26.829Z,42.00
2017-08-08T12:27:53.612Z,41.30
2017-08-08T12:30:19.633Z,41.30
2017-08-08T12:32:45.748Z,42.10
2017-08-08T12:35:11.779Z,41.60
2017-08-08T12:37:37.793Z,41.00
2017-08-08T12:40:03.862Z,41.20
2017-08-08T12:42:29.877Z,41.30
2017-08-08T12:44:55.889Z,42.90
2017-08-08T12:47:21.925Z,42.30
2017-08-08T12:49:47.937Z,42.10
2017-08-08T12:52:13.979Z,42.70
2017-08-08T12:54:40.734Z,43.90
2017-08-08T12:57:06.773Z,43.80
2017-08-08T12:59:32.820Z,44.30
2017-08-08T13:01:59.579Z,44.20
2017-08-08T13:04:25.614Z,43.50
2017-08-08T13:06:51.657Z,44.10
2017-08-08T13:09:17.686Z,44.50
2017-08-08T13:11:44.481Z,43.80
2017-08-08T13:14:10.505Z,43.80
2017-08-08T13:16:36.530Z,44.40
2017-08-08T13:19:02.566Z,42.70
2017-08-08T13:21:30.121Z,43.00
2017-08-08T13:23:56.175Z,43.60
2017-08-08T13:26:22.238Z,42.50
2017-08-08T13:28:48.284Z,42.30
2017-08-08T13:31:14.326Z,42.80
2017-08-08T13:33:41.093Z,43.10
2017-08-08T13:36:07.122Z,42.90
2017-08-08T13:38:33.177Z,43.70
2017-08-08T13:40:59.945Z,45.30
2017-08-08T13:43:25.985Z,45.30
2017-08-08T13:45:52.004Z,45.20
2017-08-08T13:48:18.072Z,45.20
2017-08-08T13:50:44.094Z,46.40
2017-08-08T13:53:10.137Z,47.80
2017-08-08T13:55:36.157Z,46.10
2017-08-08T13:58:02.186Z,46.70
2017-08-08T14:00:28.970Z,47.50
2017-08-08T14:02:54.994Z,47.40
2017-08-08T14:05:21.037Z,48.30
2017-08-08T14:07:47.802Z,48.40
2017-08-08T14:10:13.891Z,48.40
2017-08-08T14:12:39.906Z,49.30
2017-08-08T14:15:05.951Z,50.10
2017-08-08T14:17:31.980Z,49.50
2017-08-08T14:19:58.017Z,49.80
2017-08-08T14:22:24.769Z,50.30
2017-08-08T14:24:50.810Z,50.30
2017-08-08T14:27:16.845Z,52.60
2017-08-08T14:29:42.881Z,50.60
2017-08-08T14:32:08.906Z,51.50
2017-08-08T14:34:34.981Z,52.10
2017-08-08T14:37:00.998Z,50.70
2017-08-08T14:39:27.074Z,51.70
2017-08-08T14:41:53.099Z,52.60
2017-08-08T14:44:19.129Z,51.60
2017-08-08T14:46:45.897Z,51.50
2017-08-08T14:49:11.926Z,51.50
2017-08-08T14:51:37.954Z,50.80
2017-08-08T14:54:03.986Z,51.00
2017-08-08T14:56:30.768Z,52.40
2017-08-08T14:58:56.790Z,52.10
2017-08-08T15:01:22.825Z,51.40
2017-08-08T15:03:48.843Z,53.30
2017-08-08T15:06:15.628Z,52.50
2017-08-08T15:08:41.666Z,52.50
2017-08-08T15:11:07.722Z,52.00
2017-08-08T15:13:33.755Z,53.30
2017-08-08T15:15:59.796Z,54.20
2017-08-08T15:18:25.832Z,55.00
2017-08-08T15:20:51.876Z,54.80
2017-08-08T15:23:17.911Z,55.90
2017-08-08T15:25:43.957Z,56.70
2017-08-08T15:28:10.722Z,57.10
2017-08-08T15:30:36.763Z,57.10
2017-08-08T15:33:02.785Z,56.40
2017-08-08T15:35:28.839Z,55.90
2017-08-08T15:37:54.870Z,56.30
2017-08-08T15:40:20.901Z,56.40
2017-08-08T15:42:47.036Z,56.10
2017-08-08T15:45:13.102Z,56.50
2017-08-08T15:47:39.133Z,57.60
2017-08-08T15:50:05.173Z,58.40
2017-08-08T15:52:31.253Z,58.90
2017-08-08T15:54:57.294Z,59.10
2017-08-08T15:57:23.338Z,58.70
2017-08-08T15:59:49.378Z,60.00
2017-08-08T16:02:15.406Z,60.10
2017-08-08T16:04:41.444Z,60.30
2017-08-08T16:07:07.470Z,61.30
2017-08-08T16:09:34.282Z,60.80
2017-08-08T16:12:00.442Z,60.70
2017-08-08T16:14:26.462Z,59.90
2017-08-08T16:16:53.423Z,60.00
2017-08-08T16:19:19.437Z,59.80
2017-08-08T16:21:45.473Z,60.30
2017-08-08T16:24:12.237Z,62.20
2017-08-08T16:26:38.298Z,62.20
2017-08-08T16:29:04.329Z,63.10
2017-08-08T16:31:31.098Z,64.10
2017-08-08T16:33:57.126Z,64.00
2017-08-08T16:36:23.180Z,65.20
2017-08-08T16:38:49.233Z,67.00
2017-08-08T16:41:15.248Z,67.90
2017-08-08T16:43:41.286Z,68.60
2017-08-08T16:46:07.335Z,69.80
2017-08-08T16:48:33.353Z,71.90
2017-08-08T16:50:59.397Z,71.90
2017-08-08T16:53:25.412Z,72.50
2017-08-08T16:55:51.430Z,73.60
2017-08-08T16:58:17.468Z,72.70
2017-08-08T17:00:43.490Z,74.40
2017-08-08T17:03:09.533Z,75.10
2017-08-08T17:05:35.558Z,73.60
2017-08-08T17:08:01.601Z,74.20
2017-08-08T17:10:28.521Z,73.50
2017-08-08T17:12:54.588Z,73.50
2017-08-08T17:15:20.629Z,74.80
2017-08-08T17:17:46.729Z,75.50
2017-08-08T17:20:12.756Z,75.00
2017-08-08T17:22:38.808Z,74.60
2017-08-08T17:25:04.822Z,75.30
2017-08-08T17:27:30.878Z,74.90
2017-08-08T17:29:56.906Z,76.30
2017-08-08T17:32:22.965Z,75.40
2017-08-08T17:34:48.986Z,76.00
2017-08-08T17:37:15.012Z,76.40
2017-08-08T17:39:41.050Z,78.10
2017-08-08T17:42:07.073Z,80.10
2017-08-08T17:44:33.109Z,80.40
2017-08-08T17:46:59.130Z,81.60
2017-08-08T17:49:25.174Z,82.00
2017-08-08T17:51:51.192Z,82.30
2017-08-08T17:54:17.230Z,83.60
2017-08-08T17:56:44.001Z,82.30
2017-08-08T17:59:10.108Z,82.30
2017-08-08T18:01:36.133Z,83.60
2017-08-08T18:04:02.167Z,82.70
2017-08-08T18:06:28.194Z,82.30
2017-08-08T18:08:54.237Z,82.90
2017-08-08T18:11:20.274Z,83.50
2017-08-08T18:13:46.316Z,82.70
2017-08-08T18:16:12.334Z,83.20
2017-08-08T18:18:38.368Z,82.40
2017-08-08T18:21:04.397Z,82.50
2017-08-08T18:23:30.445Z,81.80
2017-08-08T18:25:57.300Z,82.90
2017-08-08T18:28:24.072Z,80.90
2017-08-08T18:30:50.126Z,80.80
2017-08-08T18:33:16.187Z,80.40
2017-08-08T18:35:42.286Z,81.30
2017-08-08T18:38:08.326Z,82.00
2017-08-08T18:40:34.358Z,81.70
2017-08-08T18:43:00.393Z,80.20
2017-08-08T18:45:27.165Z,81.50
2017-08-08T18:47:53.202Z,81.40
2017-08-08T18:50:19.252Z,81.90
2017-08-08T18:52:45.282Z,81.30
2017-08-08T18:55:11.324Z,82.30
2017-08-08T18:57:37.357Z,83.00
2017-08-08T19:00:03.412Z,83.50
2017-08-08T19:02:29.434Z,82.40
2017-08-08T19:04:55.461Z,82.70
2017-08-08T19:07:21.503Z,82.50
2017-08-08T19:09:47.577Z,83.10
2017-08-08T19:12:13.617Z,83.10
2017-08-08T19:14:39.696Z,83.10
2017-08-08T19:17:05.714Z,83.40
2017-08-08T19:19:31.738Z,83.80
2017-08-08T19:21:57.800Z,83.40
2017-08-08T19:24:30.881Z,83.50
2017-08-08T19:26:56.921Z,83.90
2017-08-08T19:29:22.948Z,84.40
2017-08-08T19:31:48.992Z,84.40
2017-08-08T19:34:15.021Z,84.60
2017-08-08T19:36:41.058Z,85.10
2017-08-08T19:39:07.085Z,85.20
2017-08-08T19:41:33.145Z,85.40
2017-08-08T19:43:59.190Z,85.30
2017-08-08T19:46:25.235Z,85.30
2017-08-08T19:48:51.301Z,86.10
2017-08-08T19:51:17.374Z,85.40
2017-08-08T19:53:44.254Z,85.30
2017-08-08T19:56:10.279Z,85.30
2017-08-08T19:58:36.334Z,85.20
2017-08-08T20:01:02.397Z,85.40
2017-08-08T20:03:28.434Z,85.40
2017-08-08T20:05:55.216Z,86.10
2017-08-08T20:08:21.265Z,85.80
2017-08-08T20:10:47.402Z,86.00
2017-08-08T20:13:13.540Z,86.30
2017-08-08T20:15:39.733Z,86.40
2017-08-08T20:18:05.756Z,86.50
2017-08-08T20:20:31.810Z,86.40
2017-08-08T20:22:57.857Z,86.50
2017-08-08T20:25:24.641Z,86.70
2017-08-08T20:27:50.735Z,86.60
2017-08-08T20:30:16.802Z,86.40
2017-08-08T20:32:43.653Z,86.50
2017-08-08T20:35:09.801Z,86.30
2017-08-08T20:37:36.510Z,86.30
2017-08-08T20:40:02.530Z,86.40
2017-08-08T20:42:28.592Z,86.20
2017-08-08T20:44:54.610Z,86.10
2017-08-08T20:47:21.385Z,86.00
2017-08-08T20:49:47.438Z,85.90
2017-08-08T20:52:14.237Z,86.60
2017-08-08T20:54:40.286Z,85.80
2017-08-08T20:57:06.304Z,85.90
2017-08-08T20:59:32.362Z,85.90
2017-08-08T21:01:58.408Z,85.90
2017-08-08T21:04:24.445Z,86.20
2017-08-08T21:06:50.476Z,86.40
2017-08-08T21:09:16.518Z,86.30
2017-08-08T21:11:42.614Z,86.00
2017-08-08T21:14:08.700Z,85.90
2017-08-08T21:16:34.725Z,85.80
2017-08-08T21:19:00.781Z,86.00
2017-08-08T21:21:26.802Z,85.60
2017-08-08T21:23:52.879Z,85.80
2017-08-08T21:26:18.899Z,85.50
2017-08-08T21:28:45.908Z,85.00
2017-08-08T21:31:11.929Z,85.00
2017-08-08T21:33:37.948Z,84.60
2017-08-08T21:36:04.020Z,84.70
2017-08-08T21:38:30.059Z,85.10
2017-08-08T21:40:56.089Z,84.30
2017-08-08T21:43:22.106Z,84.40
2017-08-08T21:45:48.138Z,84.40
2017-08-08T21:48:14.958Z,84.10
2017-08-08T21:50:41.740Z,83.90
2017-08-08T21:53:07.811Z,83.90
2017-08-08T21:55:34.031Z,84.00
2017-08-08T21:58:00.839Z,84.20
2017-08-08T22:00:26.911Z,84.00
2017-08-08T22:02:53.038Z,84.20
2017-08-08T22:05:19.102Z,84.20
2017-08-08T22:07:45.166Z,84.30
2017-08-08T22:10:11.977Z,84.40
2017-08-08T22:12:38.054Z,84.30
2017-08-08T22:15:04.099Z,84.30
2017-08-08T22:17:30.171Z,84.30
2017-08-08T22:19:56.287Z,84.30
2017-08-08T22:22:22.351Z,84.20
2017-08-08T22:24:48.422Z,84.50
2017-08-08T22:27:14.494Z,84.30
2017-08-08T22:29:41.287Z,84.30
2017-08-08T22:32:07.367Z,84.30
2017-08-08T22:34:33.438Z,84.60
2017-08-08T22:36:59.517Z,84.70
2017-08-08T22:39:25.566Z,85.00
2017-08-08T22:41:51.657Z,85.00
2017-08-08T22:44:18.442Z,84.60
2017-08-08T22:46:44.582Z,84.60
2017-08-08T22:49:11.375Z,84.50
2017-08-08T22:51:37.430Z,84.40
2017-08-08T22:54:03.499Z,84.40
2017-08-08T22:56:30.302Z,83.90
2017-08-08T22:58:56.385Z,84.40
2017-08-08T23:01:22.443Z,84.20
2017-08-08T23:03:48.536Z,83.50
2017-08-08T23:06:14.617Z,83.40
2017-08-08T23:08:40.674Z,83.80
2017-08-08T23:11:07.502Z,83.70
2017-08-08T23:13:33.575Z,83.60
2017-08-08T23:15:59.653Z,84.00
2017-08-08T23:18:25.698Z,84.10
2017-08-08T23:20:51.770Z,84.20
2017-08-08T23:23:17.823Z,84.20
2017-08-08T23:25:43.887Z,84.20
2017-08-08T23:28:09.950Z,84.20
2017-08-08T23:30:36.014Z,84.10
2017-08-08T23:33:02.820Z,84.20
2017-08-08T23:35:28.890Z,84.10
2017-08-08T23:37:54.967Z,84.20
2017-08-08T23:40:21.046Z,84.30
2017-08-08T23:42:47.140Z,84.30
2017-08-08T23:45:13.260Z,84.40
2017-08-08T23:47:39.319Z,84.00
2017-08-08T23:50:05.371Z,84.10
2017-08-08T23:52:31.446Z,82.90
2017-08-08T23:54:58.243Z,82.60
2017-08-08T23:57:24.408Z,82.60
2017-08-08T23:59:50.461Z,82.70
